Time;durP1;ratioP1;P1;durP2;ratioP2;P2;SDS_P1;SDS_P2;PMS_P1;PMS_P2;Temp;Humidity;BMP_temperature;BMP_pressure;BME280_temperature;BME280_humidity;BME280_pressure;Samples;Min_cycle;Max_cycle;Signal;HPM_P1;HPM_P2
2023/01/17 00:00:38;;;;;;;;;;;;;;;;;;5014313;28;7148;-70
2023/01/17 00:03:03;;;;;;;;;;;;;;;;;;5014693;28;7303;-70
2023/01/17 00:11:23;;;;;;;;;;;;;;;;;;5020813;28;6921;-70
2023/01/17 00:13:48;;;;;;;;;;;;;;;;;;5014673;28;7613;-70
2023/01/17 00:16:14;;;;;;;;;;;;;;;;;;5015184;28;7355;-70
2023/01/17 00:26:01;;;;;;;;;;;;;;;;;;5014438;28;6908;-70
2023/01/17 01:35:35;;;;;;;;;;;;;;;;;;5016919;28;6789;-69
2023/01/17 01:38:01;;;;;;;;;;;;;;;;;;5016715;28;7336;-70
2023/01/17 01:40:27;;;;;;;;;;;;;;;;;;5017480;28;7584;-70
2023/01/17 01:45:57;;;;;;;;;;;;;;;;;;5016371;28;7036;-70
2023/01/17 01:48:34;;;;;;;;;;;;;;;;;;5016589;28;7213;-70
2023/01/17 01:51:06;;;;;;;;;;;;;;;;;;5016547;28;7001;-70
2023/01/17 01:53:36;;;;;;;;;;;;;;;;;;5016515;28;7195;-70
2023/01/17 01:59:08;;;;;;;;;;;;;;;;;;5015776;28;6737;-69
2023/01/17 02:04:37;;;;;;;;;;;;;;;;;;5016346;28;6916;-70
2023/01/17 02:07:13;;;;;;;;;;;;;;;;;;5016181;28;7360;-70
2023/01/17 02:09:39;;;;;;;;;;;;;;;;;;4999594;28;6995;-70
2023/01/17 02:12:34;;;;;;;;;;;;;;;;;;5015962;28;6942;-70
2023/01/17 02:15:01;;;;;;;;;;;;;;;;;;5015765;28;7200;-70
2023/01/17 02:17:36;;;;;;;;;;;;;;;;;;5015956;28;6936;-70
2023/01/17 02:20:07;;;;;;;;;;;;;;;;;;5015614;28;7086;-70
2023/01/17 02:22:51;;;;;;;;;;;;;;;;;;5015796;28;7401;-70
2023/01/17 02:25:35;;;;;;;;;;;;;;;;;;5015911;28;7115;-69
2023/01/17 02:34:10;;;;;;;;;;;;;;;;;;5016025;28;6985;-70
2023/01/17 02:36:43;;;;;;;;;;;;;;;;;;5015652;28;7063;-70
2023/01/17 02:39:28;;;;;;;;;;;;;;;;;;5015502;28;7178;-70
2023/01/17 02:41:59;;;;;;;;;;;;;;;;;;5015489;28;7044;-70
2023/01/17 02:44:25;;;;;;;;;;;;;;;;;;5014543;28;7407;-70
2023/01/17 02:47:10;;;;;;;;;;;;;;;;;;5015575;28;7268;-70
2023/01/17 02:49:36;;;;;;;;;;;;;;;;;;5015361;28;7161;-70
2023/01/17 02:52:20;;;;;;;;;;;;;;;;;;5015372;28;7139;-70
2023/01/17 02:58:06;;;;;;;;;;;;;;;;;;5015343;28;6918;-70
2023/01/17 03:00:50;;;;;;;;;;;;;;;;;;5015255;28;7146;-70
2023/01/17 03:06:39;;;;;;;;;;;;;;;;;;5015028;28;6686;-70
2023/01/17 03:09:05;;;;;;;;;;;;;;;;;;4997703;28;7247;-70
2023/01/17 03:11:31;;;;;;;;;;;;;;;;;;5015800;28;7434;-70
2023/01/17 03:13:57;;;;;;;;;;;;;;;;;;5015094;28;7335;-70
2023/01/17 03:16:24;;;;;;;;;;;;;;;;;;5015047;28;7154;-70
2023/01/17 03:18:59;;;;;;;;;;;;;;;;;;5014970;28;6924;-70
2023/01/17 03:24:28;;;;;;;;;;;;;;;;;;5014835;28;6682;-70
2023/01/17 03:26:54;;;;;;;;;;;;;;;;;;5014997;28;7458;-71
2023/01/17 03:32:32;;;;;;;;;;;;;;;;;;5014569;28;6958;-70
2023/01/17 03:34:58;;;;;;;;;;;;;;;;;;5014888;28;7085;-70
2023/01/17 03:37:23;;;;;;;;;;;;;;;;;;5014700;28;7196;-70
2023/01/17 03:39:49;;;;;;;;;;;;;;;;;;5014862;28;7123;-70
2023/01/17 03:42:14;;;;;;;;;;;;;;;;;;5014816;28;7118;-70
2023/01/17 03:44:40;;;;;;;;;;;;;;;;;;5014442;28;7109;-71
2023/01/17 03:47:17;;;;;;;;;;;;;;;;;;5014730;28;7007;-68
2023/01/17 03:49:43;;;;;;;;;;;;;;;;;;5014825;28;7415;-68
2023/01/17 03:52:08;;;;;;;;;;;;;;;;;;5014608;28;7104;-68
2023/01/17 03:57:37;;;;;;;;;;;;;;;;;;5018065;28;6679;-68
2023/01/17 04:00:03;;;;;;;;;;;;;;;;;;5018720;28;7254;-68
2023/01/17 04:02:28;;;;;;;;;;;;;;;;;;5018458;28;7380;-68
2023/01/17 04:05:12;;;;;;;;;;;;;;;;;;5018510;28;7048;-68
2023/01/17 04:07:37;;;;;;;;;;;;;;;;;;5019303;28;7210;-68
2023/01/17 04:10:03;;;;;;;;;;;;;;;;;;5018362;28;7184;-68
2023/01/17 04:12:29;;;;;;;;;;;;;;;;;;5018284;28;7151;-68
2023/01/17 04:15:13;;;;;;;;;;;;;;;;;;5019212;28;7011;-68
2023/01/17 04:17:39;;;;;;;;;;;;;;;;;;5000560;28;8915;-68
2023/01/17 04:20:05;;;;;;;;;;;;;;;;;;5018230;28;7036;-68
2023/01/17 04:25:33;;;;;;;;;;;;;;;;;;5018168;28;6914;-68
2023/01/17 04:28:01;;;;;;;;;;;;;;;;;;5018120;28;7312;-68
2023/01/17 04:33:30;;;;;;;;;;;;;;;;;;5017659;28;7036;-68
2023/01/17 04:36:19;;;;;;;;;;;;;;;;;;5017800;28;7433;-68
2023/01/17 04:38:45;;;;;;;;;;;;;;;;;;5017859;28;7453;-68
2023/01/17 04:41:10;;;;;;;;;;;;;;;;;;5017828;28;7112;-68
2023/01/17 04:46:45;;;;;;;;;;;;;;;;;;4998043;28;6734;-68
2023/01/17 04:49:11;;;;;;;;;;;;;;;;;;4998046;28;7345;-68
2023/01/17 04:51:36;;;;;;;;;;;;;;;;;;4997750;28;6995;-68
2023/01/17 04:54:02;;;;;;;;;;;;;;;;;;4997962;28;7368;-66
2023/01/17 04:59:31;;;;;;;;;;;;;;;;;;4997743;28;6998;-68
2023/01/17 05:01:57;;;;;;;;;;;;;;;;;;4997764;28;7351;-68
2023/01/17 05:04:23;;;;;;;;;;;;;;;;;;4997748;28;7619;-68
2023/01/17 05:09:59;;;;;;;;;;;;;;;;;;4997505;28;6948;-68
2023/01/17 05:12:26;;;;;;;;;;;;;;;;;;4997574;28;7200;-68
2023/01/17 05:18:13;;;;;;;;;;;;;;;;;;4997294;28;6908;-68
2023/01/17 05:20:59;;;;;;;;;;;;;;;;;;4998366;28;7198;-68
2023/01/17 05:23:25;;;;;;;;;;;;;;;;;;4996961;28;8456;-68
2023/01/17 05:25:50;;;;;;;;;;;;;;;;;;5017091;28;7536;-68
2023/01/17 05:28:16;;;;;;;;;;;;;;;;;;5016976;28;7000;-68
2023/01/17 05:30:41;;;;;;;;;;;;;;;;;;5016960;28;7128;-68
2023/01/17 05:36:10;;;;;;;;;;;;;;;;;;5016707;28;6688;-68
2023/01/17 05:38:35;;;;;;;;;;;;;;;;;;5016773;28;6950;-68
2023/01/17 05:41:03;;;;;;;;;;;;;;;;;;5016752;28;7331;-68
2023/01/17 05:44:05;;;;;;;;;;;;;;;;;;5016755;28;7112;-68
2023/01/17 05:46:30;;;;;;;;;;;;;;;;;;5016618;28;7493;-68
2023/01/17 05:48:57;;;;;;;;;;;;;;;;;;4998970;28;8444;-67
2023/01/17 05:51:23;;;;;;;;;;;;;;;;;;5016368;28;7177;-68
2023/01/17 05:53:49;;;;;;;;;;;;;;;;;;5016549;28;7158;-68
2023/01/17 05:56:45;;;;;;;;;;;;;;;;;;5016460;28;7202;-68
2023/01/17 05:59:11;;;;;;;;;;;;;;;;;;5015922;28;7544;-68
2023/01/17 06:01:37;;;;;;;;;;;;;;;;;;5015985;28;8003;-68
2023/01/17 06:04:32;;;;;;;;;;;;;;;;;;5016168;28;7023;-68
2023/01/17 06:06:57;;;;;;;;;;;;;;;;;;5016259;28;7140;-68
2023/01/17 06:09:23;;;;;;;;;;;;;;;;;;5015939;28;6902;-68
2023/01/17 06:12:07;;;;;;;;;;;;;;;;;;5015869;28;7245;-68
2023/01/17 06:14:32;;;;;;;;;;;;;;;;;;5016599;28;7228;-68
2023/01/17 06:17:04;;;;;;;;;;;;;;;;;;5015650;28;7153;-68
2023/01/17 06:19:29;;;;;;;;;;;;;;;;;;5015775;28;7179;-68
2023/01/17 06:21:55;;;;;;;;;;;;;;;;;;5015459;28;7207;-68
2023/01/17 06:24:20;;;;;;;;;;;;;;;;;;5015490;28;6950;-68
2023/01/17 06:26:51;;;;;;;;;;;;;;;;;;5015733;28;7061;-68
2023/01/17 06:29:16;;;;;;;;;;;;;;;;;;5015645;28;7647;-67
2023/01/17 06:31:42;;;;;;;;;;;;;;;;;;5015610;28;7243;-68
2023/01/17 06:34:07;;;;;;;;;;;;;;;;;;5015575;28;7179;-67
2023/01/17 06:36:32;;;;;;;;;;;;;;;;;;5014636;28;6912;-67
2023/01/17 06:39:02;;;;;;;;;;;;;;;;;;5015512;28;7138;-67
2023/01/17 06:41:27;;;;;;;;;;;;;;;;;;5015433;28;7194;-67
2023/01/17 06:43:53;;;;;;;;;;;;;;;;;;5016053;28;7116;-67
2023/01/17 06:46:19;;;;;;;;;;;;;;;;;;5015111;28;7317;-67
2023/01/17 06:48:47;;;;;;;;;;;;;;;;;;4997581;28;6991;-67
2023/01/17 06:51:12;;;;;;;;;;;;;;;;;;5015355;28;7828;-67
2023/01/17 06:53:39;;;;;;;;;;;;;;;;;;5015273;28;7126;-67
2023/01/17 06:56:04;;;;;;;;;;;;;;;;;;5015186;28;7157;-66
2023/01/17 06:58:30;;;;;;;;;;;;;;;;;;5014422;28;7105;-66
2023/01/17 07:00:55;;;;;;;;;;;;;;;;;;5015641;28;7284;-67
2023/01/17 07:03:23;;;;;;;;;;;;;;;;;;5009911;28;8036;-67
2023/01/17 07:05:49;;;;;;;;;;;;;;;;;;4995606;28;7409;-67
2023/01/17 07:08:15;;;;;;;;;;;;;;;;;;5003792;28;7132;-67
2023/01/17 07:10:43;;;;;;;;;;;;;;;;;;5014574;28;7370;-67
2023/01/17 07:13:10;;;;;;;;;;;;;;;;;;5014533;28;7496;-67
2023/01/17 07:15:45;;;;;;;;;;;;;;;;;;5008255;28;6986;-67
2023/01/17 07:18:26;;;;;;;;;;;;;;;;;;4994983;28;7125;-67
2023/01/17 07:20:53;;;;;;;;;;;;;;;;;;5001881;28;7203;-67
2023/01/17 07:23:19;;;;;;;;;;;;;;;;;;4997342;28;7451;-67
2023/01/17 07:25:51;;;;;;;;;;;;;;;;;;5011611;28;7607;-67
2023/01/17 07:28:17;;;;;;;;;;;;;;;;;;5011118;28;7076;-67
2023/01/17 07:30:43;;;;;;;;;;;;;;;;;;5011510;28;7622;-67
2023/01/17 07:33:08;;;;;;;;;;;;;;;;;;5015018;28;7143;-67
2023/01/17 07:35:35;;;;;;;;;;;;;;;;;;5016263;28;7210;-67
2023/01/17 07:41:04;;;;;;;;;;;;;;;;;;5021238;28;6726;-67
2023/01/17 07:43:30;;;;;;;;;;;;;;;;;;5020956;28;7131;-66
2023/01/17 07:45:56;;;;;;;;;;;;;;;;;;5019858;28;7057;-67
2023/01/17 07:51:24;;;;;;;;;;;;;;;;;;5020876;28;6979;-67
2023/01/17 07:53:52;;;;;;;;;;;;;;;;;;5020951;28;7946;-67
2023/01/17 07:56:17;;;;;;;;;;;;;;;;;;5020975;28;7121;-67
2023/01/17 07:58:43;;;;;;;;;;;;;;;;;;5020118;28;7552;-66
2023/01/17 08:01:11;;;;;;;;;;;;;;;;;;5020788;28;7154;-70
2023/01/17 08:03:38;;;;;;;;;;;;;;;;;;5019669;28;8816;-70
2023/01/17 08:06:30;;;;;;;;;;;;;;;;;;5019815;28;7173;-70
2023/01/17 08:08:57;;;;;;;;;;;;;;;;;;5000535;28;8547;-70
2023/01/17 08:11:43;;;;;;;;;;;;;;;;;;4988938;28;7204;-71
2023/01/17 08:14:09;;;;;;;;;;;;;;;;;;5013659;28;7264;-71
2023/01/17 08:16:36;;;;;;;;;;;;;;;;;;5018546;28;7005;-71
2023/01/17 08:19:01;;;;;;;;;;;;;;;;;;5014916;28;7194;-71
2023/01/17 08:21:27;;;;;;;;;;;;;;;;;;5020999;28;7148;-71
2023/01/17 08:26:56;;;;;;;;;;;;;;;;;;5020784;28;6974;-71
2023/01/17 08:29:45;;;;;;;;;;;;;;;;;;5020730;28;6820;-71
2023/01/17 08:32:14;;;;;;;;;;;;;;;;;;5021304;28;7079;-71
2023/01/17 08:34:39;;;;;;;;;;;;;;;;;;5020156;28;7939;-71
2023/01/17 08:37:10;;;;;;;;;;;;;;;;;;5020641;28;7743;-71
2023/01/17 08:39:36;;;;;;;;;;;;;;;;;;5020686;28;7166;-71
2023/01/17 08:42:02;;;;;;;;;;;;;;;;;;5001630;28;7198;-71
2023/01/17 08:44:34;;;;;;;;;;;;;;;;;;4997594;28;7387;-71
2023/01/17 08:47:00;;;;;;;;;;;;;;;;;;5010345;28;7027;-71
2023/01/17 08:49:26;;;;;;;;;;;;;;;;;;5010435;28;7313;-71
2023/01/17 08:52:06;;;;;;;;;;;;;;;;;;5017528;28;7050;-70
2023/01/17 08:54:31;;;;;;;;;;;;;;;;;;5015391;28;7428;-71
2023/01/17 08:56:57;;;;;;;;;;;;;;;;;;5013840;28;7103;-71
2023/01/17 08:59:24;;;;;;;;;;;;;;;;;;5014172;28;7472;-71
2023/01/17 09:01:56;;;;;;;;;;;;;;;;;;5001637;28;7220;-71
2023/01/17 09:04:22;;;;;;;;;;;;;;;;;;5005246;28;7073;-71
2023/01/17 09:06:52;;;;;;;;;;;;;;;;;;5009665;28;7385;-71
2023/01/17 09:09:18;;;;;;;;;;;;;;;;;;5008077;28;7403;-72
2023/01/17 09:11:57;;;;;;;;;;;;;;;;;;5009037;28;6958;-70
2023/01/17 09:14:23;;;;;;;;;;;;;;;;;;5013477;28;6998;-70
2023/01/17 09:19:51;;;;;;;;;;;;;;;;;;5015788;28;7060;-70
2023/01/17 09:22:16;;;;;;;;;;;;;;;;;;5002253;28;7413;-69
2023/01/17 09:24:42;;;;;;;;;;;;;;;;;;5017211;28;7324;-70
2023/01/17 09:27:07;;;;;;;;;;;;;;;;;;5016735;28;7186;-70
2023/01/17 09:29:44;;;;;;;;;;;;;;;;;;5016983;28;7312;-70
2023/01/17 09:32:09;;;;;;;;;;;;;;;;;;5016520;28;7710;-70
2023/01/17 09:34:35;;;;;;;;;;;;;;;;;;5016915;28;7150;-70
2023/01/17 09:39:59;;;;;;;;;;;;;;;;;;4991320;28;7089;-71
2023/01/17 09:42:32;;;;;;;;;;;;;;;;;;5015939;28;7095;-70
2023/01/17 09:45:01;;;;;;;;;;;;;;;;;;5015926;28;7116;-71
2023/01/17 09:47:35;;;;;;;;;;;;;;;;;;4996609;28;7220;-71
2023/01/17 09:56:12;;;;;;;;;;;;;;;;;;4994255;28;7043;-71
2023/01/17 09:58:51;;;;;;;;;;;;;;;;;;5008972;28;7251;-70
2023/01/17 10:01:42;;;;;;;;;;;;;;;;;;4996456;28;6819;-70
2023/01/17 10:04:26;;;;;;;;;;;;;;;;;;4996689;28;7048;-70
2023/01/17 10:06:57;;;;;;;;;;;;;;;;;;4996695;28;6984;-70
2023/01/17 10:09:46;;;;;;;;;;;;;;;;;;4996614;28;6883;-70
2023/01/17 10:12:15;;;;;;;;;;;;;;;;;;4996417;28;7321;-70
2023/01/17 10:15:05;;;;;;;;;;;;;;;;;;4996556;28;7360;-70
2023/01/17 10:26:40;;;;;;;;;;;;;;;;;;4996039;28;6691;-70
2023/01/17 10:29:13;;;;;;;;;;;;;;;;;;4996202;28;7255;-70
2023/01/17 10:37:48;;;;;;;;;;;;;;;;;;4995822;28;7039;-70
2023/01/17 10:40:31;;;;;;;;;;;;;;;;;;4995728;28;7182;-71
2023/01/17 10:42:57;;;;;;;;;;;;;;;;;;4995915;28;7165;-71
2023/01/17 10:51:31;;;;;;;;;;;;;;;;;;5117415;23;7427;-70
2023/01/17 10:54:24;;;;;;;;;;;;;;;;;;4976079;28;8339;-71
2023/01/17 10:59:57;;;;;;;;;;;;;;;;;;4976038;28;6903;-70
2023/01/17 11:05:33;;;;;;;;;;;;;;;;;;4956047;28;6910;-71
2023/01/17 11:08:03;;;;;;;;;;;;;;;;;;4956820;28;7005;-71
2023/01/17 11:13:51;;;;;;;;;;;;;;;;;;4956797;28;6846;-70
2023/01/17 11:16:20;;;;;;;;;;;;;;;;;;4956407;28;8924;-70
2023/01/17 11:21:51;;;;;;;;;;;;;;;;;;4956426;28;6918;-70
2023/01/17 11:24:21;;;;;;;;;;;;;;;;;;4956634;28;7074;-70
2023/01/17 11:26:48;;;;;;;;;;;;;;;;;;4958196;28;7024;-70
2023/01/17 11:29:25;;;;;;;;;;;;;;;;;;4975723;28;6815;-70
2023/01/17 11:31:51;;;;;;;;;;;;;;;;;;4975850;28;7142;-70
2023/01/17 11:34:21;;;;;;;;;;;;;;;;;;4975873;28;7033;-70
2023/01/17 11:36:48;;;;;;;;;;;;;;;;;;4975520;28;6850;-70
2023/01/17 11:39:16;;;;;;;;;;;;;;;;;;4975700;28;7002;-70
2023/01/17 11:41:43;;;;;;;;;;;;;;;;;;4975497;28;7122;-70
2023/01/17 11:44:20;;;;;;;;;;;;;;;;;;4975822;28;7072;-70
2023/01/17 11:49:42;;;;;;;;;;;;;;;;;;4975776;28;6946;-71
2023/01/17 11:52:14;;;;;;;;;;;;;;;;;;4958954;28;7421;-71
2023/01/17 11:54:44;;;;;;;;;;;;;;;;;;4956440;29;7145;-71
2023/01/17 11:57:21;;;;;;;;;;;;;;;;;;4956340;29;7427;-71
2023/01/17 11:59:48;;;;;;;;;;;;;;;;;;4956330;29;7101;-71
2023/01/17 12:05:22;;;;;;;;;;;;;;;;;;4956778;29;7008;-71
2023/01/17 12:11:01;;;;;;;;;;;;;;;;;;4956201;29;6686;-71
2023/01/17 12:16:34;;;;;;;;;;;;;;;;;;4956604;28;6798;-71
2023/01/17 12:19:18;;;;;;;;;;;;;;;;;;4959755;28;7178;-71
2023/01/17 12:27:52;;;;;;;;;;;;;;;;;;4959428;28;7009;-71
2023/01/17 12:36:32;;;;;;;;;;;;;;;;;;4959404;28;6918;-71
2023/01/17 12:39:03;;;;;;;;;;;;;;;;;;4959462;28;7519;-71
2023/01/17 12:44:51;;;;;;;;;;;;;;;;;;4959353;28;6824;-71
2023/01/17 12:50:28;;;;;;;;;;;;;;;;;;4959694;28;7056;-71
2023/01/17 12:53:03;;;;;;;;;;;;;;;;;;4958918;28;7212;-71
2023/01/17 12:55:35;;;;;;;;;;;;;;;;;;4959321;28;7190;-71
2023/01/17 13:01:07;;;;;;;;;;;;;;;;;;4959055;28;6687;-71
2023/01/17 13:06:59;;;;;;;;;;;;;;;;;;4958859;28;6687;-71
2023/01/17 13:12:37;;;;;;;;;;;;;;;;;;5047646;23;6836;-70
2023/01/17 13:15:15;;;;;;;;;;;;;;;;;;5037466;28;6926;-70
2023/01/17 13:17:47;;;;;;;;;;;;;;;;;;5036072;28;9046;-69
2023/01/17 13:20:12;;;;;;;;;;;;;;;;;;5036955;28;6967;-69
2023/01/17 13:22:39;;;;;;;;;;;;;;;;;;5036153;28;6793;-69
2023/01/17 13:25:24;;;;;;;;;;;;;;;;;;5036549;28;7281;-70
2023/01/17 13:37:38;;;;;;;;;;;;;;;;;;5036688;28;6932;-70
2023/01/17 13:40:06;;;;;;;;;;;;;;;;;;5036523;28;7419;-70
2023/01/17 13:49:07;;;;;;;;;;;;;;;;;;5036677;28;6798;-70
2023/01/17 13:52:09;;;;;;;;;;;;;;;;;;5035794;28;7236;-70
2023/01/17 13:54:46;;;;;;;;;;;;;;;;;;5036197;28;7145;-70
2023/01/17 13:57:42;;;;;;;;;;;;;;;;;;5036221;28;7011;-69
2023/01/17 14:00:14;;;;;;;;;;;;;;;;;;5035865;28;7245;-70
2023/01/17 14:03:01;;;;;;;;;;;;;;;;;;5036116;28;6996;-71
2023/01/17 14:05:30;;;;;;;;;;;;;;;;;;5036068;28;7318;-70
2023/01/17 14:08:02;;;;;;;;;;;;;;;;;;5036128;28;7323;-70
2023/01/17 14:10:54;;;;;;;;;;;;;;;;;;5035716;28;6943;-70
2023/01/17 14:13:52;;;;;;;;;;;;;;;;;;5035388;28;6956;-69
2023/01/17 14:16:20;;;;;;;;;;;;;;;;;;5035415;28;9104;-70
2023/01/17 14:18:47;;;;;;;;;;;;;;;;;;5035831;28;6994;-70
2023/01/17 14:24:17;;;;;;;;;;;;;;;;;;5035637;28;7045;-70
2023/01/17 14:26:46;;;;;;;;;;;;;;;;;;5035740;28;7367;-70
2023/01/17 14:35:22;;;;;;;;;;;;;;;;;;5035618;28;6842;-70
2023/01/17 14:41:18;;;;;;;;;;;;;;;;;;5034303;28;7431;-71
2023/01/17 14:46:48;;;;;;;;;;;;;;;;;;5035199;28;6928;-71
2023/01/17 14:49:22;;;;;;;;;;;;;;;;;;5035221;28;7120;-71
2023/01/17 14:52:02;;;;;;;;;;;;;;;;;;5034929;28;7176;-71
2023/01/17 14:54:35;;;;;;;;;;;;;;;;;;5035065;28;7519;-71
2023/01/17 14:57:19;;;;;;;;;;;;;;;;;;5035006;28;7190;-71
2023/01/17 15:02:49;;;;;;;;;;;;;;;;;;5034898;28;6694;-71
2023/01/17 15:05:16;;;;;;;;;;;;;;;;;;5035068;28;6972;-71
2023/01/17 15:07:45;;;;;;;;;;;;;;;;;;5035108;28;7507;-71
2023/01/17 15:16:45;;;;;;;;;;;;;;;;;;5034708;28;6691;-71
2023/01/17 15:19:21;;;;;;;;;;;;;;;;;;5034773;28;7574;-71
2023/01/17 15:21:52;;;;;;;;;;;;;;;;;;5034856;28;7132;-71
2023/01/17 15:24:27;;;;;;;;;;;;;;;;;;5034740;28;7235;-71
2023/01/17 15:26:53;;;;;;;;;;;;;;;;;;5035553;28;7137;-71
2023/01/17 15:29:24;;;;;;;;;;;;;;;;;;5034752;28;7146;-71
2023/01/17 15:34:52;;;;;;;;;;;;;;;;;;5034436;28;7398;-71
2023/01/17 15:37:25;;;;;;;;;;;;;;;;;;5034764;28;7108;-71
2023/01/17 15:40:09;;;;;;;;;;;;;;;;;;5034569;28;7617;-71
2023/01/17 15:42:37;;;;;;;;;;;;;;;;;;5034151;28;7207;-71
2023/01/17 15:45:08;;;;;;;;;;;;;;;;;;5034604;28;7175;-71
2023/01/17 15:50:38;;;;;;;;;;;;;;;;;;5034331;28;6962;-71
2023/01/17 15:53:06;;;;;;;;;;;;;;;;;;5037273;28;7343;-71
2023/01/17 15:55:33;;;;;;;;;;;;;;;;;;5039318;28;7154;-71
2023/01/17 16:01:01;;;;;;;;;;;;;;;;;;5038118;28;6915;-71
2023/01/17 16:03:30;;;;;;;;;;;;;;;;;;5036477;28;7052;-71
2023/01/17 16:06:24;;;;;;;;;;;;;;;;;;5038073;28;6935;-71
2023/01/17 16:08:53;;;;;;;;;;;;;;;;;;5038804;28;7131;-71
2023/01/17 16:11:33;;;;;;;;;;;;;;;;;;5037286;28;7219;-71
2023/01/17 16:14:00;;;;;;;;;;;;;;;;;;5032495;28;7563;-71
2023/01/17 16:16:25;;;;;;;;;;;;;;;;;;5038102;28;6897;-71
2023/01/17 16:19:06;;;;;;;;;;;;;;;;;;5038022;28;7064;-71
2023/01/17 16:21:31;;;;;;;;;;;;;;;;;;5028835;28;7220;-71
2023/01/17 16:24:01;;;;;;;;;;;;;;;;;;5038254;28;6914;-70
2023/01/17 16:26:27;;;;;;;;;;;;;;;;;;5038050;28;7240;-70
2023/01/17 16:28:53;;;;;;;;;;;;;;;;;;5037826;28;7237;-70
2023/01/17 16:31:19;;;;;;;;;;;;;;;;;;5037898;28;7151;-70
2023/01/17 16:33:47;;;;;;;;;;;;;;;;;;5037765;28;7410;-70
2023/01/17 16:36:15;;;;;;;;;;;;;;;;;;5037707;28;6943;-71
2023/01/17 16:38:42;;;;;;;;;;;;;;;;;;5037668;28;7719;-71
2023/01/17 16:41:07;;;;;;;;;;;;;;;;;;5037785;28;7106;-71
2023/01/17 16:43:44;;;;;;;;;;;;;;;;;;5037611;28;7363;-71
2023/01/17 16:46:11;;;;;;;;;;;;;;;;;;5037664;28;7332;-71
2023/01/17 16:48:37;;;;;;;;;;;;;;;;;;5037590;28;7123;-71
2023/01/17 16:51:06;;;;;;;;;;;;;;;;;;5037836;28;6917;-71
2023/01/17 16:53:31;;;;;;;;;;;;;;;;;;5037418;28;7349;-71
2023/01/17 16:56:04;;;;;;;;;;;;;;;;;;5037483;28;7945;-71
2023/01/17 16:58:30;;;;;;;;;;;;;;;;;;5037356;28;7217;-71
2023/01/17 17:01:07;;;;;;;;;;;;;;;;;;5037418;28;7445;-71
2023/01/17 17:03:32;;;;;;;;;;;;;;;;;;5036070;28;7372;-71
2023/01/17 17:05:59;;;;;;;;;;;;;;;;;;5037351;28;7224;-71
2023/01/17 17:08:27;;;;;;;;;;;;;;;;;;5037239;28;6966;-71
2023/01/17 17:11:11;;;;;;;;;;;;;;;;;;5037260;28;7382;-71
2023/01/17 17:13:38;;;;;;;;;;;;;;;;;;5036605;28;7176;-71
2023/01/17 17:19:14;;;;;;;;;;;;;;;;;;5036807;28;6921;-71
2023/01/17 17:24:42;;;;;;;;;;;;;;;;;;5036813;28;6686;-71
2023/01/17 17:27:08;;;;;;;;;;;;;;;;;;5036872;28;6904;-71
2023/01/17 17:29:33;;;;;;;;;;;;;;;;;;5036835;28;7219;-71
2023/01/17 17:32:14;;;;;;;;;;;;;;;;;;5036759;28;7153;-71
2023/01/17 17:34:39;;;;;;;;;;;;;;;;;;5037340;28;7172;-71
2023/01/17 17:37:05;;;;;;;;;;;;;;;;;;5036671;28;7130;-71
2023/01/17 17:42:33;;;;;;;;;;;;;;;;;;5036160;28;6684;-69
2023/01/17 17:44:59;;;;;;;;;;;;;;;;;;5036293;28;7194;-70
2023/01/17 17:47:24;;;;;;;;;;;;;;;;;;5036419;28;7402;-70
2023/01/17 17:50:22;;;;;;;;;;;;;;;;;;5036469;28;6810;-70
2023/01/17 17:52:47;;;;;;;;;;;;;;;;;;5035841;28;7434;-70
2023/01/17 17:55:17;;;;;;;;;;;;;;;;;;5036421;28;7396;-70
2023/01/17 18:00:48;;;;;;;;;;;;;;;;;;5035901;28;6932;-70
2023/01/17 18:03:30;;;;;;;;;;;;;;;;;;5036089;28;7298;-70
2023/01/17 18:06:06;;;;;;;;;;;;;;;;;;5018087;28;8529;-70
2023/01/17 18:08:32;;;;;;;;;;;;;;;;;;5036074;28;7500;-70
2023/01/17 18:14:10;;;;;;;;;;;;;;;;;;5035839;28;6937;-70
2023/01/17 18:16:40;;;;;;;;;;;;;;;;;;5035738;28;7485;-69
2023/01/17 18:19:07;;;;;;;;;;;;;;;;;;5035800;28;7198;-69
2023/01/17 18:21:37;;;;;;;;;;;;;;;;;;5035690;28;7174;-69
2023/01/17 18:24:04;;;;;;;;;;;;;;;;;;5035558;28;7278;-69
2023/01/17 18:29:32;;;;;;;;;;;;;;;;;;5035474;28;7070;-69
2023/01/17 18:32:01;;;;;;;;;;;;;;;;;;5035518;28;7346;-69
2023/01/17 18:34:28;;;;;;;;;;;;;;;;;;5035590;28;7061;-69
2023/01/17 18:42:59;;;;;;;;;;;;;;;;;;5035036;28;6686;-69
2023/01/17 18:45:24;;;;;;;;;;;;;;;;;;5035348;28;7392;-69
2023/01/17 18:48:23;;;;;;;;;;;;;;;;;;5035351;28;6912;-69
2023/01/17 18:50:59;;;;;;;;;;;;;;;;;;5035295;28;7603;-69
2023/01/17 18:53:25;;;;;;;;;;;;;;;;;;5036363;28;7139;-69
2023/01/17 18:55:52;;;;;;;;;;;;;;;;;;5035293;28;7168;-69
2023/01/17 18:58:19;;;;;;;;;;;;;;;;;;5034875;28;7704;-69
2023/01/17 19:01:19;;;;;;;;;;;;;;;;;;5035151;28;7289;-69
2023/01/17 19:03:46;;;;;;;;;;;;;;;;;;5034965;28;7473;-69
2023/01/17 19:06:15;;;;;;;;;;;;;;;;;;5034968;28;7309;-69
2023/01/17 19:08:53;;;;;;;;;;;;;;;;;;5035127;28;7532;-69
2023/01/17 19:11:20;;;;;;;;;;;;;;;;;;5035078;28;7444;-69
2023/01/17 19:13:48;;;;;;;;;;;;;;;;;;5033209;28;7246;-69
2023/01/17 19:16:31;;;;;;;;;;;;;;;;;;5034955;28;6830;-69
2023/01/17 19:19:00;;;;;;;;;;;;;;;;;;5034865;28;7135;-69
2023/01/17 19:21:27;;;;;;;;;;;;;;;;;;5034766;28;6959;-69
2023/01/17 19:23:53;;;;;;;;;;;;;;;;;;5034775;28;7420;-69
2023/01/17 19:26:39;;;;;;;;;;;;;;;;;;5034338;28;7097;-69
2023/01/17 19:29:05;;;;;;;;;;;;;;;;;;5017768;28;8440;-69
2023/01/17 19:31:35;;;;;;;;;;;;;;;;;;5034790;28;7299;-69
2023/01/17 19:37:04;;;;;;;;;;;;;;;;;;5034581;28;6936;-69
2023/01/17 19:39:38;;;;;;;;;;;;;;;;;;5035725;28;7296;-69
2023/01/17 19:42:03;;;;;;;;;;;;;;;;;;5034087;28;7147;-69
2023/01/17 19:44:29;;;;;;;;;;;;;;;;;;5034606;28;7181;-69
2023/01/17 19:49:57;;;;;;;;;;;;;;;;;;5034250;28;6940;-69
2023/01/17 19:52:23;;;;;;;;;;;;;;;;;;5034535;28;7445;-69
2023/01/17 19:57:51;;;;;;;;;;;;;;;;;;5034341;28;6691;-69
2023/01/17 20:00:19;;;;;;;;;;;;;;;;;;5028816;28;7311;-69
2023/01/17 20:03:20;;;;;;;;;;;;;;;;;;5014695;28;6968;-69
2023/01/17 20:05:54;;;;;;;;;;;;;;;;;;5014773;28;7335;-69
2023/01/17 20:08:19;;;;;;;;;;;;;;;;;;5014762;28;7175;-69
2023/01/17 20:10:45;;;;;;;;;;;;;;;;;;5014648;28;7000;-69
2023/01/17 20:13:11;;;;;;;;;;;;;;;;;;5019339;28;7146;-69
2023/01/17 20:15:37;;;;;;;;;;;;;;;;;;5034499;28;7043;-69
2023/01/17 20:18:02;;;;;;;;;;;;;;;;;;5034234;28;7085;-69
2023/01/17 20:20:31;;;;;;;;;;;;;;;;;;5034035;28;7071;-69
2023/01/17 20:23:04;;;;;;;;;;;;;;;;;;5034721;28;7069;-69
2023/01/17 20:25:30;;;;;;;;;;;;;;;;;;5034350;28;7356;-69
2023/01/17 20:27:55;;;;;;;;;;;;;;;;;;5034208;28;7508;-69
2023/01/17 20:33:23;;;;;;;;;;;;;;;;;;5033817;28;7097;-69
2023/01/17 20:35:50;;;;;;;;;;;;;;;;;;5034212;28;7446;-70
2023/01/17 20:38:15;;;;;;;;;;;;;;;;;;5035345;28;7137;-70
2023/01/17 20:40:41;;;;;;;;;;;;;;;;;;5037860;28;7102;-70
2023/01/17 20:43:08;;;;;;;;;;;;;;;;;;5037475;28;7031;-70
2023/01/17 20:45:34;;;;;;;;;;;;;;;;;;5037931;28;7174;-69
2023/01/17 20:47:59;;;;;;;;;;;;;;;;;;5037655;28;7380;-69
2023/01/17 20:50:49;;;;;;;;;;;;;;;;;;5037654;28;7184;-69
2023/01/17 20:53:15;;;;;;;;;;;;;;;;;;5018912;28;7564;-70
2023/01/17 21:01:47;;;;;;;;;;;;;;;;;;5016802;28;7083;-69
2023/01/17 21:04:13;;;;;;;;;;;;;;;;;;5017063;28;7264;-70
2023/01/17 21:06:40;;;;;;;;;;;;;;;;;;5015405;28;7063;-70
2023/01/17 21:09:23;;;;;;;;;;;;;;;;;;5017468;28;7136;-70
2023/01/17 21:11:49;;;;;;;;;;;;;;;;;;5017315;28;7126;-70
2023/01/17 21:14:14;;;;;;;;;;;;;;;;;;5028609;28;7040;-70
2023/01/17 21:17:08;;;;;;;;;;;;;;;;;;5037109;28;7203;-70
2023/01/17 21:19:35;;;;;;;;;;;;;;;;;;5037019;28;7391;-70
2023/01/17 21:25:04;;;;;;;;;;;;;;;;;;5036699;28;6693;-70
2023/01/17 21:27:29;;;;;;;;;;;;;;;;;;5036257;28;7155;-70
2023/01/17 21:29:55;;;;;;;;;;;;;;;;;;5030916;28;7188;-70
2023/01/17 21:32:28;;;;;;;;;;;;;;;;;;5034096;28;7224;-70
2023/01/17 21:34:54;;;;;;;;;;;;;;;;;;5036522;28;6904;-70
2023/01/17 21:37:20;;;;;;;;;;;;;;;;;;5036271;28;6809;-70
2023/01/17 21:39:50;;;;;;;;;;;;;;;;;;5036408;28;7230;-70
2023/01/17 21:42:26;;;;;;;;;;;;;;;;;;5036356;28;7083;-71
2023/01/17 21:44:51;;;;;;;;;;;;;;;;;;5036493;28;7420;-69
2023/01/17 21:47:33;;;;;;;;;;;;;;;;;;5036557;28;7369;-69
2023/01/17 21:49:59;;;;;;;;;;;;;;;;;;5035827;28;7174;-69
2023/01/17 21:52:24;;;;;;;;;;;;;;;;;;5036335;28;7377;-69
2023/01/17 22:03:23;;;;;;;;;;;;;;;;;;5033539;28;6882;-69
2023/01/17 22:05:48;;;;;;;;;;;;;;;;;;5036012;28;7214;-69
2023/01/17 22:08:41;;;;;;;;;;;;;;;;;;5035553;28;6949;-69
2023/01/17 22:11:09;;;;;;;;;;;;;;;;;;5035806;28;7332;-69
2023/01/17 22:13:38;;;;;;;;;;;;;;;;;;5034785;28;7523;-69
2023/01/17 22:16:06;;;;;;;;;;;;;;;;;;5035498;28;7247;-69
2023/01/17 22:18:44;;;;;;;;;;;;;;;;;;5035900;28;7005;-69
2023/01/17 22:21:42;;;;;;;;;;;;;;;;;;5035646;28;7154;-69
2023/01/17 22:24:10;;;;;;;;;;;;;;;;;;5035342;28;7630;-69
2023/01/17 22:29:39;;;;;;;;;;;;;;;;;;5035721;28;6997;-69
2023/01/17 22:32:04;;;;;;;;;;;;;;;;;;5035288;28;7096;-69
2023/01/17 22:34:30;;;;;;;;;;;;;;;;;;5017664;28;8756;-69
2023/01/17 22:36:55;;;;;;;;;;;;;;;;;;5035306;28;7125;-69
2023/01/17 22:39:49;;;;;;;;;;;;;;;;;;5035350;28;7399;-69
2023/01/17 22:42:15;;;;;;;;;;;;;;;;;;5035203;28;7142;-69
2023/01/17 22:44:41;;;;;;;;;;;;;;;;;;5035482;28;7299;-69
2023/01/17 22:47:34;;;;;;;;;;;;;;;;;;5035327;28;7102;-69
2023/01/17 22:49:59;;;;;;;;;;;;;;;;;;5036021;28;6957;-69
2023/01/17 22:52:25;;;;;;;;;;;;;;;;;;5035993;28;7140;-69
2023/01/17 22:55:10;;;;;;;;;;;;;;;;;;5035367;28;7263;-69
2023/01/17 22:57:36;;;;;;;;;;;;;;;;;;5035085;28;7430;-69
2023/01/17 23:00:13;;;;;;;;;;;;;;;;;;5035109;28;7458;-69
2023/01/17 23:02:40;;;;;;;;;;;;;;;;;;5016538;28;7246;-69